Time;durP1;ratioP1;P1;durP2;ratioP2;P2;SDS_P1;SDS_P2;PMS_P1;PMS_P2;Temp;Humidity;BMP_temperature;BMP_pressure;BME280_temperature;BME280_humidity;BME280_pressure;Samples;Min_cycle;Max_cycle;Signal;HPM_P1;HPM_P2
2023/06/12 00:00:56;;;;;;;11.13;6.33;;;15.60;76.00;;;;;;5983670;24;20458;-61
2023/06/12 00:03:25;;;;;;;9.67;6.93;;;15.50;77.20;;;;;;5982831;24;20478;-61
2023/06/12 00:05:52;;;;;;;14.93;8.43;;;15.40;77.50;;;;;;5983708;24;20420;-61
2023/06/12 00:08:20;;;;;;;11.60;7.17;;;15.40;81.90;;;;;;5983577;24;20420;-61
2023/06/12 00:10:48;;;;;;;10.23;6.83;;;15.30;84.20;;;;;;5983327;24;20423;-61
2023/06/12 00:13:15;;;;;;;10.60;7.47;;;15.30;85.90;;;;;;5983523;24;20442;-61
2023/06/12 00:15:42;;;;;;;10.50;7.90;;;15.30;87.30;;;;;;5983411;24;20427;-61
2023/06/12 00:18:09;;;;;;;12.23;7.30;;;15.20;86.70;;;;;;5983157;24;20426;-61
2023/06/12 00:20:37;;;;;;;15.27;7.50;;;15.20;88.60;;;;;;5982760;24;20900;-61
2023/06/12 00:23:03;;;;;;;10.30;7.13;;;15.10;89.30;;;;;;5983066;24;20471;-61
2023/06/12 00:25:30;;;;;;;12.87;7.33;;;15.00;89.20;;;;;;5983218;24;20428;-61
2023/06/12 00:27:57;;;;;;;10.87;6.83;;;14.90;88.60;;;;;;5983449;24;20420;-61
2023/06/12 00:30:24;;;;;;;10.33;6.50;;;14.90;89.20;;;;;;5983538;24;20427;-61
2023/06/12 00:32:51;;;;;;;9.90;6.80;;;14.80;90.20;;;;;;5983085;24;20416;-61
2023/06/12 00:35:18;;;;;;;11.87;6.33;;;14.80;91.30;;;;;;5983574;24;20776;-61
2023/06/12 00:37:46;;;;;;;11.73;6.83;;;14.70;92.90;;;;;;5983423;24;20426;-61
2023/06/12 00:40:14;;;;;;;8.90;7.13;;;14.70;92.90;;;;;;5983238;24;20747;-61
2023/06/12 00:42:46;;;;;;;10.90;6.70;;;14.70;92.90;;;;;;5982629;24;20443;-61
2023/06/12 00:45:13;;;;;;;12.87;7.03;;;14.60;92.90;;;;;;5983595;24;20403;-61
2023/06/12 00:47:41;;;;;;;10.80;6.30;;;14.60;92.90;;;;;;5983285;24;20420;-61
2023/06/12 00:50:11;;;;;;;11.03;6.23;;;14.50;92.70;;;;;;5983435;24;20430;-61
2023/06/12 00:52:40;;;;;;;11.03;6.67;;;14.50;92.80;;;;;;5982932;24;20462;-61
2023/06/12 00:55:08;;;;;;;8.83;6.80;;;14.50;92.80;;;;;;5983010;24;20478;-61
2023/06/12 00:57:37;;;;;;;10.70;7.10;;;14.50;92.80;;;;;;5983211;24;20427;-61
2023/06/12 01:00:06;;;;;;;10.43;6.27;;;14.40;92.80;;;;;;5983125;24;20448;-61
2023/06/12 01:02:33;;;;;;;15.70;7.77;;;14.40;92.80;;;;;;5982810;24;20444;-61
2023/06/12 01:05:00;;;;;;;13.17;7.43;;;14.30;93.90;;;;;;5983309;24;20431;-61
2023/06/12 01:07:35;;;;;;;19.00;6.80;;;14.40;94.50;;;;;;5983126;24;20419;-61
2023/06/12 01:10:09;;;;;;;9.70;7.40;;;14.30;94.10;;;;;;5983597;24;20414;-61
2023/06/12 01:12:38;;;;;;;9.93;7.40;;;14.20;95.30;;;;;;5982236;24;20400;-61
2023/06/12 01:15:06;;;;;;;10.40;9.27;;;14.20;97.20;;;;;;5982844;24;20749;-61
2023/06/12 01:17:33;;;;;;;11.87;9.80;;;14.10;99.30;;;;;;5983110;24;20722;-61
2023/06/12 01:20:07;;;;;;;10.83;9.57;;;14.10;99.30;;;;;;5982708;24;20912;-61
2023/06/12 01:22:41;;;;;;;18.50;9.90;;;14.10;99.30;;;;;;5982544;24;20450;-61
2023/06/12 01:25:24;;;;;;;10.87;9.37;;;14.00;99.90;;;;;;5982497;24;20427;-61
2023/06/12 01:28:07;;;;;;;11.27;8.80;;;14.00;99.90;;;;;;5982449;24;20412;-61
2023/06/12 01:30:49;;;;;;;11.53;9.03;;;13.90;99.80;;;;;;5983040;24;20407;-61
2023/06/12 01:33:25;;;;;;;11.60;7.97;;;13.90;99.90;;;;;;5982013;24;20407;-61
2023/06/12 01:35:53;;;;;;;12.43;9.87;;;13.90;99.90;;;;;;5982931;24;20404;-61
2023/06/12 01:38:21;;;;;;;12.63;11.27;;;13.80;99.90;;;;;;5982450;24;20930;-61
2023/06/12 01:40:49;;;;;;;10.57;9.50;;;13.80;99.90;;;;;;5983139;24;20513;-61
2023/06/12 01:43:16;;;;;;;11.40;9.90;;;13.80;99.90;;;;;;5982319;24;20443;-61
2023/06/12 01:45:43;;;;;;;10.27;9.30;;;13.70;99.90;;;;;;5983188;24;20430;-61
2023/06/12 01:48:10;;;;;;;13.30;11.00;;;13.70;99.90;;;;;;5982864;24;20750;-61
2023/06/12 01:50:38;;;;;;;13.60;11.30;;;13.60;99.90;;;;;;5981419;24;20419;-61
2023/06/12 01:53:05;;;;;;;13.07;11.57;;;13.60;99.90;;;;;;5981981;24;20872;-61
2023/06/12 01:55:32;;;;;;;10.77;9.33;;;13.50;99.90;;;;;;5982613;24;20426;-61
2023/06/12 01:57:59;;;;;;;11.50;10.30;;;13.50;99.90;;;;;;5982424;24;20521;-61
2023/06/12 02:00:26;;;;;;;11.13;9.90;;;13.50;99.90;;;;;;5982643;24;20427;-61
2023/06/12 02:02:54;;;;;;;13.37;12.00;;;13.40;99.90;;;;;;5982304;24;20450;-61
2023/06/12 02:05:21;;;;;;;18.13;16.63;;;13.40;99.90;;;;;;5982421;24;20983;-61
2023/06/12 02:07:49;;;;;;;20.57;18.80;;;13.30;99.90;;;;;;5982246;24;20423;-61
2023/06/12 02:10:16;;;;;;;19.17;17.70;;;13.30;99.90;;;;;;5982377;24;20422;-61
2023/06/12 02:12:44;;;;;;;22.37;20.70;;;13.30;99.90;;;;;;5981812;24;20422;-61
2023/06/12 02:15:12;;;;;;;21.43;19.70;;;13.20;99.90;;;;;;5982538;24;20480;-61
2023/06/12 02:17:39;;;;;;;28.07;26.27;;;13.20;99.90;;;;;;5982263;24;20923;-61
2023/06/12 02:20:07;;;;;;;24.53;22.93;;;13.20;99.90;;;;;;5982403;24;20903;-61
2023/06/12 02:22:33;;;;;;;26.30;24.50;;;13.10;99.90;;;;;;5981729;24;20954;-61
2023/06/12 02:25:02;;;;;;;22.10;20.60;;;13.10;99.90;;;;;;5981983;24;20428;-61
2023/06/12 02:27:29;;;;;;;14.60;13.30;;;13.00;99.90;;;;;;5982361;24;20482;-61
2023/06/12 02:29:56;;;;;;;17.17;15.40;;;12.90;99.90;;;;;;5982751;24;20422;-61
2023/06/12 02:32:23;;;;;;;19.37;17.87;;;13.00;99.90;;;;;;5982511;24;20416;-61
2023/06/12 02:34:49;;;;;;;18.80;16.60;;;13.00;99.90;;;;;;5981801;24;20447;-61
2023/06/12 02:37:16;;;;;;;18.77;17.17;;;13.00;99.90;;;;;;5982819;24;20727;-61
2023/06/12 02:39:43;;;;;;;18.40;16.67;;;13.00;99.90;;;;;;5982213;24;20420;-61
2023/06/12 02:42:11;;;;;;;23.60;21.80;;;12.90;99.90;;;;;;5982466;24;20471;-61
2023/06/12 02:44:38;;;;;;;19.47;17.97;;;12.80;99.90;;;;;;5981492;24;20426;-61
2023/06/12 02:47:05;;;;;;;20.03;15.40;;;12.70;99.90;;;;;;5982492;24;20895;-61
2023/06/12 02:49:32;;;;;;;21.70;20.10;;;12.80;99.90;;;;;;5982320;24;20768;-61
2023/06/12 02:51:59;;;;;;;17.83;16.40;;;12.80;99.90;;;;;;5982381;24;20434;-61
2023/06/12 02:54:28;;;;;;;18.73;17.13;;;12.90;99.90;;;;;;5981718;24;20956;-61
2023/06/12 02:56:55;;;;;;;20.30;18.90;;;12.90;99.90;;;;;;5981874;24;20422;-61
2023/06/12 02:59:24;;;;;;;28.43;26.57;;;12.90;99.90;;;;;;5982076;24;20425;-61
2023/06/12 03:01:51;;;;;;;35.97;33.90;;;12.90;99.90;;;;;;5982374;24;20429;-61
2023/06/12 03:04:19;;;;;;;35.93;33.53;;;12.90;99.90;;;;;;5981492;24;20451;-61
2023/06/12 03:06:47;;;;;;;35.47;33.40;;;12.80;99.90;;;;;;5982229;24;20483;-61
2023/06/12 03:09:16;;;;;;;40.83;38.63;;;12.80;99.90;;;;;;5982389;24;20459;-61
2023/06/12 03:11:44;;;;;;;34.43;32.53;;;12.80;99.90;;;;;;5982377;24;20615;-61
2023/06/12 03:14:12;;;;;;;38.17;35.90;;;12.80;99.90;;;;;;5981839;24;20417;-61
2023/06/12 03:16:41;;;;;;;53.93;51.23;;;12.70;99.90;;;;;;5982425;24;20422;-61
2023/06/12 03:19:08;;;;;;;50.70;48.20;;;12.70;99.90;;;;;;5981404;24;20929;-61
2023/06/12 03:21:35;;;;;;;29.33;27.33;;;12.70;99.90;;;;;;5982092;24;20426;-62
2023/06/12 03:24:02;;;;;;;25.47;23.70;;;12.70;99.90;;;;;;5980907;24;20445;-63
2023/06/12 03:26:31;;;;;;;30.53;28.43;;;12.60;99.90;;;;;;5981801;24;20406;-63
2023/06/12 03:28:58;;;;;;;43.23;41.00;;;12.60;99.90;;;;;;5981730;24;20420;-63
2023/06/12 03:31:26;;;;;;;39.73;37.20;;;12.60;99.90;;;;;;5982194;24;20422;-63
2023/06/12 03:33:54;;;;;;;28.07;25.97;;;12.70;99.90;;;;;;5978718;24;20425;-63
2023/06/12 03:36:23;;;;;;;37.13;34.83;;;12.70;99.90;;;;;;5981689;24;20474;-63
2023/06/12 03:38:50;;;;;;;27.73;25.90;;;12.80;99.90;;;;;;5981512;24;20422;-63
2023/06/12 03:41:17;;;;;;;26.13;24.23;;;12.80;99.90;;;;;;5981687;24;20421;-62
2023/06/12 03:43:44;;;;;;;28.63;26.40;;;12.80;99.90;;;;;;5981366;24;20447;-63
2023/06/12 03:46:11;;;;;;;33.73;31.63;;;12.90;99.90;;;;;;5982254;24;20419;-63
2023/06/12 03:48:38;;;;;;;22.33;20.70;;;12.90;99.90;;;;;;5981038;24;20422;-62
2023/06/12 03:51:06;;;;;;;20.93;19.20;;;12.90;99.90;;;;;;5981835;24;20905;-63
2023/06/12 03:53:33;;;;;;;22.90;20.90;;;12.80;99.90;;;;;;5981459;24;20415;-63
2023/06/12 03:56:00;;;;;;;26.70;24.90;;;12.90;99.90;;;;;;5982330;24;20916;-63
2023/06/12 03:58:27;;;;;;;24.80;23.00;;;13.00;99.90;;;;;;5983158;24;20426;-63
2023/06/12 04:00:54;;;;;;;23.13;20.77;;;13.00;99.90;;;;;;5983358;24;20420;-63
2023/06/12 04:03:21;;;;;;;19.83;15.00;;;13.10;99.90;;;;;;5982238;24;20443;-62
2023/06/12 04:05:49;;;;;;;16.97;13.40;;;13.20;99.90;;;;;;5983486;24;20422;-63
2023/06/12 04:08:17;;;;;;;12.20;9.07;;;13.30;99.90;;;;;;5982141;24;20426;-63
2023/06/12 04:10:45;;;;;;;14.53;9.47;;;13.40;99.90;;;;;;5983650;24;20420;-63
2023/06/12 04:13:12;;;;;;;14.37;8.90;;;13.60;99.90;;;;;;5982665;24;20938;-63
2023/06/12 04:15:39;;;;;;;13.40;8.60;;;13.70;99.90;;;;;;5983665;24;20419;-62
2023/06/12 04:18:07;;;;;;;14.63;8.40;;;13.70;99.90;;;;;;5983088;24;20422;-63
2023/06/12 04:20:33;;;;;;;18.87;9.60;;;13.70;99.80;;;;;;5983573;24;20502;-63
2023/06/12 04:23:04;;;;;;;10.07;7.20;;;13.80;99.90;;;;;;5982548;24;20446;-62
2023/06/12 04:25:32;;;;;;;10.57;7.27;;;13.80;99.20;;;;;;5983478;24;20463;-63
2023/06/12 04:28:00;;;;;;;11.10;8.40;;;13.90;99.90;;;;;;5983246;24;20420;-62
2023/06/12 04:30:27;;;;;;;14.20;8.27;;;14.00;99.90;;;;;;5983301;24;20420;-63
2023/06/12 04:32:56;;;;;;;13.23;8.27;;;14.20;99.90;;;;;;5982689;24;20420;-62
2023/06/12 04:35:22;;;;;;;11.60;9.13;;;14.30;99.90;;;;;;5982928;24;20423;-63
2023/06/12 04:37:52;;;;;;;12.50;9.00;;;14.40;99.90;;;;;;5983181;24;20430;-63
2023/06/12 04:40:20;;;;;;;13.47;9.10;;;14.40;99.90;;;;;;5983314;24;20888;-63
2023/06/12 04:42:48;;;;;;;17.33;9.03;;;14.50;99.90;;;;;;5982599;24;20506;-63
2023/06/12 04:45:16;;;;;;;13.27;9.47;;;14.60;99.90;;;;;;5983390;24;20494;-63
2023/06/12 04:47:43;;;;;;;12.13;10.00;;;14.60;99.90;;;;;;5983110;24;20424;-63
2023/06/12 04:50:11;;;;;;;11.67;8.80;;;14.60;99.90;;;;;;5982826;24;20502;-63
2023/06/12 04:52:39;;;;;;;12.57;8.00;;;14.60;99.90;;;;;;5982568;24;20423;-65
2023/06/12 04:55:08;;;;;;;10.67;7.73;;;14.60;99.90;;;;;;5983071;24;20419;-65
2023/06/12 04:57:36;;;;;;;11.60;7.10;;;14.70;99.90;;;;;;5983069;24;20420;-62
2023/06/12 05:00:08;;;;;;;11.37;7.77;;;14.70;99.90;;;;;;5983104;24;20744;-63
2023/06/12 05:02:35;;;;;;;16.10;7.50;;;14.80;99.90;;;;;;5982457;24;20427;-63
2023/06/12 05:05:02;;;;;;;10.57;7.30;;;15.00;99.70;;;;;;5982795;24;20447;-63
2023/06/12 05:07:31;;;;;;;15.27;7.40;;;15.10;98.70;;;;;;5982567;24;20431;-63
2023/06/12 05:09:58;;;;;;;12.17;7.30;;;15.20;96.60;;;;;;5983187;24;20426;-62
2023/06/12 05:12:25;;;;;;;12.63;7.67;;;15.50;95.90;;;;;;5983212;24;20423;-63
2023/06/12 05:14:51;;;;;;;13.23;7.90;;;15.60;96.60;;;;;;5982505;24;20416;-63
2023/06/12 05:17:20;;;;;;;13.50;6.97;;;15.90;96.20;;;;;;5982805;24;20426;-63
2023/06/12 05:19:46;;;;;;;12.47;7.30;;;16.30;96.20;;;;;;5982794;24;20738;-63
2023/06/12 05:22:13;;;;;;;10.70;7.03;;;16.90;93.80;;;;;;5982628;24;20431;-62
2023/06/12 05:24:40;;;;;;;11.13;7.03;;;17.70;90.20;;;;;;5981425;24;20454;-63
2023/06/12 05:27:07;;;;;;;10.73;6.60;;;18.50;84.70;;;;;;5982609;24;20420;-63
2023/06/12 05:29:34;;;;;;;11.43;6.87;;;19.30;75.80;;;;;;5982658;24;20420;-63
2023/06/12 05:32:02;;;;;;;9.80;6.30;;;20.00;70.70;;;;;;5982303;24;20426;-63
2023/06/12 05:34:30;;;;;;;14.60;7.10;;;20.60;63.20;;;;;;5981322;24;20751;-62
2023/06/12 05:36:57;;;;;;;11.17;7.43;;;21.10;56.30;;;;;;5982522;24;20485;-63
2023/06/12 05:39:24;;;;;;;9.83;6.83;;;21.30;54.50;;;;;;5982462;24;20431;-63
2023/06/12 05:41:51;;;;;;;11.00;6.20;;;21.60;54.70;;;;;;5981988;24;20420;-63
2023/06/12 05:44:18;;;;;;;9.97;6.53;;;21.90;50.30;;;;;;5981891;24;20844;-63
2023/06/12 05:46:47;;;;;;;14.83;7.60;;;22.20;52.00;;;;;;5982644;24;20442;-63
2023/06/12 05:49:14;;;;;;;11.43;7.00;;;22.50;48.60;;;;;;5981910;24;20455;-62
2023/06/12 05:51:42;;;;;;;10.53;6.30;;;22.80;45.00;;;;;;5981888;24;20420;-63
2023/06/12 05:54:09;;;;;;;10.20;6.30;;;23.00;38.10;;;;;;5981737;24;20416;-62
2023/06/12 05:56:36;;;;;;;9.17;6.27;;;23.20;32.60;;;;;;5982368;24;20760;-63
2023/06/12 05:59:02;;;;;;;9.13;6.27;;;23.30;29.40;;;;;;5980957;24;20394;-62
2023/06/12 06:01:31;;;;;;;12.23;7.10;;;23.40;29.50;;;;;;5982445;24;20419;-63
2023/06/12 06:03:58;;;;;;;17.47;6.70;;;23.60;29.60;;;;;;5981570;24;20807;-62
2023/06/12 06:06:25;;;;;;;10.53;6.70;;;24.00;27.20;;;;;;5982326;24;20420;-63
2023/06/12 06:08:54;;;;;;;12.70;8.57;;;24.10;27.20;;;;;;5981192;24;20806;-62
2023/06/12 06:11:21;;;;;;;11.63;7.30;;;24.00;22.60;;;;;;5981629;24;20515;-63
2023/06/12 06:13:48;;;;;;;12.73;6.80;;;23.90;21.50;;;;;;5981930;24;20416;-62
2023/06/12 06:16:15;;;;;;;14.90;6.43;;;23.90;22.50;;;;;;5981986;24;20896;-62
2023/06/12 06:18:41;;;;;;;14.20;7.03;;;24.10;22.00;;;;;;5981998;24;20476;-63
2023/06/12 06:21:08;;;;;;;8.80;5.90;;;24.20;22.60;;;;;;5982023;24;20420;-62
2023/06/12 06:23:35;;;;;;;11.33;6.50;;;24.50;22.90;;;;;;5982012;24;20414;-63
2023/06/12 06:26:03;;;;;;;8.87;5.70;;;24.80;19.90;;;;;;5982294;24;20402;-63
2023/06/12 06:28:30;;;;;;;12.40;7.00;;;24.80;16.50;;;;;;5982240;24;20420;-62
2023/06/12 06:30:57;;;;;;;11.97;6.17;;;24.60;15.50;;;;;;5981858;24;20401;-62
2023/06/12 06:33:24;;;;;;;12.90;6.47;;;24.40;16.50;;;;;;5981665;24;20908;-62
2023/06/12 06:35:50;;;;;;;9.00;6.67;;;24.20;17.10;;;;;;5981390;24;20394;-63
2023/06/12 06:38:21;;;;;;;9.00;6.00;;;24.30;18.20;;;;;;5981071;24;20398;-63
2023/06/12 06:40:47;;;;;;;9.23;6.40;;;24.20;17.40;;;;;;5982382;24;20479;-63
2023/06/12 06:43:16;;;;;;;8.30;5.30;;;24.00;17.60;;;;;;5981157;24;20492;-63
2023/06/12 06:45:43;;;;;;;9.90;5.70;;;24.00;16.30;;;;;;5981649;24;20420;-63
2023/06/12 06:48:10;;;;;;;9.00;5.90;;;24.10;18.90;;;;;;5981540;24;20428;-63
2023/06/12 06:50:37;;;;;;;9.83;6.43;;;24.10;19.80;;;;;;5982434;24;20394;-64
2023/06/12 06:53:04;;;;;;;9.80;6.83;;;24.30;18.00;;;;;;5981875;24;20456;-63
2023/06/12 06:55:31;;;;;;;9.03;5.90;;;24.40;17.00;;;;;;5982437;24;20397;-63
2023/06/12 06:57:58;;;;;;;10.50;6.83;;;24.70;20.70;;;;;;5982053;24;20420;-63
2023/06/12 07:00:27;;;;;;;9.60;6.60;;;24.90;15.70;;;;;;5981858;24;20495;-63
2023/06/12 07:02:54;;;;;;;10.93;6.07;;;25.00;15.80;;;;;;5983654;24;20483;-63
2023/06/12 07:05:21;;;;;;;13.33;5.77;;;25.30;15.90;;;;;;5982997;24;20451;-62
2023/06/12 07:07:49;;;;;;;10.60;6.53;;;25.30;13.20;;;;;;5981090;24;20427;-67
2023/06/12 07:10:17;;;;;;;10.63;5.53;;;25.60;14.40;;;;;;5982389;24;20178;-67
2023/06/12 07:12:43;;;;;;;11.10;6.43;;;25.90;13.40;;;;;;5982078;24;20427;-67
2023/06/12 07:15:10;;;;;;;10.37;6.90;;;25.90;12.50;;;;;;5982126;24;20416;-67
2023/06/12 07:17:38;;;;;;;10.20;6.20;;;26.00;11.20;;;;;;5981872;24;20420;-67
2023/06/12 07:20:08;;;;;;;9.67;6.23;;;26.20;11.60;;;;;;5982292;24;20396;-67
2023/06/12 07:22:35;;;;;;;11.23;6.27;;;26.30;10.40;;;;;;5981941;24;20430;-67
2023/06/12 07:25:02;;;;;;;9.03;5.63;;;26.30;8.80;;;;;;5982022;24;20447;-67
2023/06/12 07:27:29;;;;;;;7.90;5.30;;;26.50;6.70;;;;;;5982263;24;20402;-67
2023/06/12 07:29:55;;;;;;;9.07;5.53;;;26.60;6.00;;;;;;5982927;24;20396;-67
2023/06/12 07:32:22;;;;;;;9.63;6.03;;;27.30;9.40;;;;;;5983779;24;20428;-67
2023/06/12 07:34:51;;;;;;;8.70;5.40;;;27.60;6.60;;;;;;5983594;24;20417;-67
2023/06/12 07:37:20;;;;;;;8.63;5.90;;;27.10;1.40;;;;;;5984064;24;20423;-67
2023/06/12 07:39:47;;;;;;;8.83;6.00;;;27.00;1.30;;;;;;5984116;24;20398;-67
2023/06/12 07:42:14;;;;;;;9.73;5.93;;;26.90;1.30;;;;;;5983968;24;20448;-67
2023/06/12 07:44:42;;;;;;;12.80;6.50;;;27.20;4.20;;;;;;5983540;24;20781;-68
2023/06/12 07:47:08;;;;;;;8.27;6.00;;;27.00;2.20;;;;;;5983674;24;20905;-67
2023/06/12 07:49:36;;;;;;;9.23;5.27;;;26.90;1.30;;;;;;5983798;24;20416;-67
2023/06/12 07:52:05;;;;;;;8.37;5.87;;;27.10;1.40;;;;;;5982483;24;20886;-67
2023/06/12 07:54:32;;;;;;;14.03;5.70;;;27.40;1.00;;;;;;5983206;24;20940;-67
2023/06/12 07:56:58;;;;;;;11.17;5.80;;;27.90;1.80;;;;;;5984027;24;20422;-67
2023/06/12 07:59:25;;;;;;;8.10;5.73;;;27.90;1.00;;;;;;5984039;24;20397;-67
2023/06/12 08:01:52;;;;;;;12.10;6.57;;;28.20;1.00;;;;;;5983882;24;20407;-67
2023/06/12 08:04:19;;;;;;;11.13;5.53;;;28.00;1.00;;;;;;5983375;24;20449;-67
2023/06/12 08:06:47;;;;;;;12.17;5.90;;;28.20;1.00;;;;;;5983782;24;20420;-67
2023/06/12 08:09:15;;;;;;;8.80;6.40;;;28.30;1.00;;;;;;5983704;24;20728;-67
2023/06/12 08:11:42;;;;;;;10.30;5.90;;;28.20;1.00;;;;;;5983806;24;20423;-67
2023/06/12 08:14:09;;;;;;;7.50;5.87;;;28.70;1.00;;;;;;5983308;24;20397;-67
2023/06/12 08:16:36;;;;;;;7.67;5.30;;;28.70;1.00;;;;;;5983727;24;20394;-67
2023/06/12 08:19:03;;;;;;;7.63;5.23;;;28.60;1.00;;;;;;5983620;24;20426;-67
2023/06/12 08:21:30;;;;;;;10.23;6.80;;;28.70;1.00;;;;;;5983731;24;20426;-67
2023/06/12 08:23:57;;;;;;;7.80;5.37;;;29.30;1.00;;;;;;5982606;24;20395;-67
2023/06/12 08:26:25;;;;;;;9.67;5.37;;;29.40;1.00;;;;;;5983366;24;20411;-67
2023/06/12 08:28:52;;;;;;;8.10;5.50;;;29.50;1.00;;;;;;5983614;24;20467;-67
2023/06/12 08:31:19;;;;;;;10.30;5.43;;;29.50;1.00;;;;;;5983287;24;20419;-67
2023/06/12 08:33:46;;;;;;;7.60;5.53;;;29.60;1.00;;;;;;5983067;24;20446;-67
2023/06/12 08:36:13;;;;;;;10.47;5.83;;;29.60;1.00;;;;;;5983581;24;20415;-67
2023/06/12 08:38:40;;;;;;;8.03;5.93;;;29.90;1.00;;;;;;5983466;24;20394;-67
2023/06/12 08:41:06;;;;;;;10.67;5.57;;;29.70;1.00;;;;;;5983256;24;20394;-67
2023/06/12 08:43:35;;;;;;;8.87;5.53;;;29.80;1.00;;;;;;5983071;24;20401;-67
2023/06/12 08:46:04;;;;;;;9.93;5.17;;;29.90;1.00;;;;;;5983073;24;20444;-67
2023/06/12 08:48:31;;;;;;;7.87;5.23;;;30.20;1.00;;;;;;5983212;24;20450;-67
2023/06/12 08:50:59;;;;;;;10.03;6.17;;;30.70;1.00;;;;;;5983514;24;20401;-67
2023/06/12 08:53:27;;;;;;;10.40;5.93;;;30.80;1.00;;;;;;5982918;24;20394;-67
2023/06/12 08:55:55;;;;;;;8.40;5.50;;;30.80;1.00;;;;;;5983454;24;20420;-67
2023/06/12 08:58:22;;;;;;;10.53;6.50;;;30.50;1.00;;;;;;5992214;24;20435;-67
2023/06/12 09:00:50;;;;;;;11.50;6.10;;;30.40;1.00;;;;;;5983246;24;20705;-67
2023/06/12 09:03:17;;;;;;;8.30;5.80;;;30.50;1.00;;;;;;5982799;24;20431;-67
2023/06/12 09:05:46;;;;;;;9.50;6.20;;;30.50;1.00;;;;;;5983309;24;20709;-67
2023/06/12 09:08:13;;;;;;;7.23;5.57;;;30.60;1.00;;;;;;5982788;24;20507;-67
2023/06/12 09:10:40;;;;;;;10.30;5.40;;;31.20;1.00;;;;;;5983264;24;20394;-67
2023/06/12 09:13:09;;;;;;;8.53;5.40;;;31.00;1.00;;;;;;5982813;24;20398;-67
2023/06/12 09:15:37;;;;;;;10.30;5.40;;;31.40;1.00;;;;;;5983075;24;20432;-67
2023/06/12 09:18:10;;;;;;;9.97;5.50;;;32.10;1.00;;;;;;5983045;24;20402;-67
2023/06/12 09:20:38;;;;;;;8.43;5.93;;;31.40;1.00;;;;;;5983296;24;20839;-67
2023/06/12 09:23:05;;;;;;;9.87;6.37;;;31.60;1.00;;;;;;5982304;24;20398;-67
2023/06/12 09:25:35;;;;;;;7.80;5.83;;;31.20;1.00;;;;;;5982902;24;20421;-67
2023/06/12 09:28:03;;;;;;;9.30;6.30;;;31.50;1.00;;;;;;5981030;24;20433;-67
2023/06/12 09:30:31;;;;;;;10.67;5.90;;;31.80;1.00;;;;;;5982392;24;20179;-67
2023/06/12 09:32:59;;;;;;;9.33;6.00;;;32.10;1.00;;;;;;5982621;24;20394;-67
2023/06/12 09:35:28;;;;;;;10.53;5.17;;;32.00;1.00;;;;;;5983000;24;20390;-65
2023/06/12 09:37:55;;;;;;;11.53;5.60;;;31.90;1.00;;;;;;5982961;24;20400;-64
2023/06/12 09:40:22;;;;;;;8.73;5.23;;;32.10;1.00;;;;;;5982886;24;20419;-65
2023/06/12 09:42:50;;;;;;;8.93;6.13;;;32.80;1.00;;;;;;5982092;24;20420;-64
2023/06/12 09:45:18;;;;;;;8.20;5.67;;;32.70;1.00;;;;;;5982880;24;20910;-65
2023/06/12 09:47:46;;;;;;;7.00;5.00;;;32.90;1.00;;;;;;5982426;24;20585;-65
2023/06/12 09:50:13;;;;;;;10.13;5.13;;;33.10;1.00;;;;;;5982889;24;20398;-65
2023/06/12 09:52:44;;;;;;;8.93;5.27;;;33.00;1.00;;;;;;5982217;24;20700;-64
2023/06/12 09:55:13;;;;;;;8.80;5.10;;;33.50;1.00;;;;;;5982321;24;20428;-64
2023/06/12 09:57:42;;;;;;;8.40;5.90;;;33.70;1.00;;;;;;5982558;24;20394;-64
2023/06/12 10:00:16;;;;;;;8.67;5.20;;;33.00;1.00;;;;;;5981905;24;20930;-64
2023/06/12 10:02:50;;;;;;;9.00;5.60;;;32.40;1.00;;;;;;5982483;24;20503;-68
2023/06/12 10:05:21;;;;;;;8.17;5.57;;;32.60;1.00;;;;;;5982439;24;20782;-68
2023/06/12 10:07:53;;;;;;;10.20;5.60;;;33.30;1.00;;;;;;5980853;24;20475;-68
2023/06/12 10:10:20;;;;;;;8.50;5.00;;;33.90;1.00;;;;;;5982526;24;20182;-68
2023/06/12 10:12:48;;;;;;;9.20;5.40;;;34.40;1.00;;;;;;5982151;24;20395;-68
2023/06/12 10:15:15;;;;;;;7.00;4.70;;;34.40;1.00;;;;;;5982807;24;20710;-68
2023/06/12 10:17:43;;;;;;;8.90;5.17;;;34.40;1.00;;;;;;5982554;24;20394;-68
2023/06/12 10:20:11;;;;;;;7.43;4.97;;;34.60;1.00;;;;;;5982200;24;20398;-68
2023/06/12 10:22:38;;;;;;;8.80;5.73;;;35.10;1.00;;;;;;5982326;24;20423;-68
2023/06/12 10:25:09;;;;;;;7.90;5.17;;;34.30;1.00;;;;;;5982328;24;20431;-68
2023/06/12 10:27:38;;;;;;;10.40;5.30;;;34.90;1.00;;;;;;5982452;24;20407;-68
2023/06/12 10:30:09;;;;;;;10.57;5.57;;;35.00;1.00;;;;;;5982995;24;20442;-68
2023/06/12 10:32:37;;;;;;;8.20;4.80;;;34.80;1.00;;;;;;5982302;24;20844;-68
2023/06/12 10:35:04;;;;;;;8.03;6.23;;;34.80;1.00;;;;;;5982452;24;20425;-69
2023/06/12 10:37:33;;;;;;;8.20;5.60;;;35.20;1.00;;;;;;5982449;24;20499;-68
2023/06/12 10:40:12;;;;;;;8.80;5.10;;;35.20;1.00;;;;;;5982627;24;20428;-68
2023/06/12 10:42:44;;;;;;;7.20;4.90;;;35.00;1.00;;;;;;5981843;24;20404;-68
2023/06/12 10:45:18;;;;;;;6.70;4.50;;;35.10;1.00;;;;;;5982420;24;20447;-68
2023/06/12 10:48:17;;;;;;;8.10;5.10;;;35.70;1.00;;;;;;5982356;24;20401;-68
2023/06/12 10:50:45;;;;;;;7.60;5.30;;;35.50;1.00;;;;;;5982521;24;20435;-68
2023/06/12 10:53:14;;;;;;;7.97;4.83;;;35.50;1.00;;;;;;5981748;24;20420;-68
2023/06/12 10:55:43;;;;;;;9.10;5.10;;;35.90;1.00;;;;;;5981957;24;20439;-68
2023/06/12 10:58:12;;;;;;;9.27;5.00;;;35.70;1.00;;;;;;5982342;24;20948;-68
2023/06/12 11:00:45;;;;;;;7.70;4.67;;;36.10;1.00;;;;;;5982598;24;20446;-68
2023/06/12 11:03:13;;;;;;;8.57;5.27;;;36.10;1.00;;;;;;5982075;24;20408;-68
2023/06/12 11:05:46;;;;;;;6.83;4.63;;;36.00;1.00;;;;;;5983829;24;20435;-68
2023/06/12 11:08:12;;;;;;;7.70;5.43;;;35.70;1.00;;;;;;5983847;24;20386;-68
2023/06/12 11:10:40;;;;;;;11.43;6.00;;;36.40;1.00;;;;;;5983964;24;20420;-68
2023/06/12 11:13:08;;;;;;;8.43;5.23;;;36.10;1.00;;;;;;5983817;24;20393;-68
2023/06/12 11:15:42;;;;;;;7.80;5.30;;;35.90;1.00;;;;;;5984279;24;20811;-68
2023/06/12 11:18:09;;;;;;;8.33;5.27;;;36.10;1.00;;;;;;5984214;24;20765;-68
2023/06/12 11:20:36;;;;;;;10.83;6.40;;;36.40;1.00;;;;;;5984205;24;20485;-68
2023/06/12 11:23:05;;;;;;;8.17;5.40;;;36.80;1.00;;;;;;5983792;24;20400;-68
2023/06/12 11:25:35;;;;;;;7.03;4.40;;;36.90;1.00;;;;;;5983912;24;20402;-67
2023/06/12 11:28:03;;;;;;;8.23;5.60;;;36.80;1.00;;;;;;5984102;24;20741;-68
2023/06/12 11:30:32;;;;;;;8.00;5.90;;;37.10;1.00;;;;;;5983908;24;20394;-68
2023/06/12 11:33:05;;;;;;;7.60;4.83;;;37.20;1.00;;;;;;5983238;24;20426;-68
2023/06/12 11:35:32;;;;;;;7.77;5.67;;;37.80;1.00;;;;;;5984057;24;20442;-68
2023/06/12 11:37:59;;;;;;;8.23;5.10;;;37.10;1.00;;;;;;5983915;24;20420;-68
2023/06/12 11:40:28;;;;;;;9.30;4.93;;;37.70;1.00;;;;;;5984202;24;20425;-69
2023/06/12 11:42:55;;;;;;;9.27;5.37;;;37.70;1.00;;;;;;5983600;24;20394;-69
2023/06/12 11:45:22;;;;;;;7.67;5.00;;;38.80;1.00;;;;;;5984208;24;20884;-69
2023/06/12 11:47:50;;;;;;;7.43;5.27;;;38.70;1.00;;;;;;5984748;24;20748;-68
2023/06/12 11:50:19;;;;;;;7.00;5.33;;;37.70;1.00;;;;;;5985352;24;20427;-69
2023/06/12 11:52:46;;;;;;;9.03;5.77;;;38.10;1.00;;;;;;5985348;24;20393;-68
2023/06/12 11:55:16;;;;;;;7.70;5.33;;;38.40;1.00;;;;;;5984322;24;20414;-67
2023/06/12 11:57:47;;;;;;;7.93;5.20;;;38.50;1.00;;;;;;5983890;24;20419;-67
2023/06/12 12:00:17;;;;;;;7.57;5.10;;;39.00;1.00;;;;;;5983952;24;20732;-68
2023/06/12 12:02:49;;;;;;;8.07;5.50;;;37.60;1.00;;;;;;5983511;24;20788;-68
2023/06/12 12:05:20;;;;;;;9.00;4.97;;;36.10;1.00;;;;;;5983927;24;20400;-67
2023/06/12 12:07:52;;;;;;;7.47;5.33;;;35.40;1.00;;;;;;5983815;24;20410;-68
2023/06/12 12:10:19;;;;;;;7.40;5.50;;;35.70;1.00;;;;;;5983852;24;20770;-68
2023/06/12 12:12:49;;;;;;;8.53;6.60;;;37.00;1.00;;;;;;5982798;24;20908;-67
2023/06/12 12:15:16;;;;;;;9.57;4.83;;;38.10;1.00;;;;;;5983904;24;20490;-68
2023/06/12 12:17:45;;;;;;;9.10;5.47;;;38.50;1.00;;;;;;5983180;24;20398;-68
2023/06/12 12:20:18;;;;;;;8.00;5.30;;;38.80;1.00;;;;;;5983340;24;20394;-68
2023/06/12 12:22:47;;;;;;;8.57;5.60;;;39.30;1.00;;;;;;5983285;24;20414;-68
2023/06/12 12:25:20;;;;;;;8.90;5.87;;;38.80;1.00;;;;;;5983291;24;20783;-68
2023/06/12 12:27:47;;;;;;;11.80;5.00;;;38.70;1.00;;;;;;5983505;24;20398;-68
2023/06/12 12:30:15;;;;;;;10.90;5.53;;;38.60;1.00;;;;;;5983316;24;20394;-68
2023/06/12 12:32:44;;;;;;;7.87;5.80;;;39.20;1.00;;;;;;5982769;24;20394;-68
2023/06/12 12:35:11;;;;;;;8.20;5.40;;;39.90;1.00;;;;;;5983161;24;20429;-68
2023/06/12 12:37:39;;;;;;;7.50;5.90;;;40.30;1.00;;;;;;5983302;24;20502;-68
2023/06/12 12:40:09;;;;;;;7.57;5.30;;;39.70;1.00;;;;;;5983508;24;20404;-67
2023/06/12 12:42:37;;;;;;;9.80;5.30;;;38.50;1.00;;;;;;5983421;24;20502;-68
2023/06/12 12:45:06;;;;;;;7.20;5.40;;;37.90;1.00;;;;;;5983488;24;20805;-68
2023/06/12 12:47:33;;;;;;;10.20;5.83;;;36.90;1.00;;;;;;5983071;24;20507;-68